Aeroporto :







RITROVATECI SU...

 
LOGIN :

Iscrizione | Disclaimer

   EN    FR    IT 

 









Sommario :    VFR   VFR Marginale   IFR   IFR Intensivo   IFR Molto Intensivo
Visibilità : 
Base nubi : 
>= 8 km
>= 3000ft
5 / 8 km
1000 / 3000 ft
1500m / 5 km
500 / 1000 ft
800 / 1500m
200 / 500 ft
< 800m
< 200 ft
Simboli :   Temporali  Nebbia  Neve Forte  Precipitazioni Forti  Vento > 20 kt






- Altitudine del aeroporto : 352 ft


KAUG - Augusta State

ULTIMO METAR :
  • 140253Z AUTO 33003KT 10SM BKN070 23/17 A3009 RMK AO2 SLP188 T02280167 50008

METARs OBSOLETI :
  • 140153Z AUTO 32008KT 10SM BKN070 BKN090 23/17 A3010 RMK AO2 SLP190 T02280172
  • 140053Z AUTO 00000KT 10SM SCT085 24/16 A3008 RMK AO2 SLP185 T02390161
  • 132353Z AUTO 00000KT 10SM CLR 27/15 A3007 RMK AO2 SLP181 T02670150 10311 20267 55001

TAF KAUG
Valido dal 14 a 00 ore il 15 a 00 ore UTC


132320Z 1400/1424 VRB03KT P6SM SCT250
FM141400 01006KT P6SM SCT250
FIR KZBW / America del Nord



MetMap, La meteo Aeronautica in un colpo d'occhio ! - Copyright ORBIFLY Dicembre 2007 - Disclaimer

ORBIFLY MET'MAP TEAM :

Programmazione e sviluppo : Alexandra Zaïnal
Concezione : Baudouin d'Aumeries
Aiuto per la programmazione : Marc-Olivier Méhu
Supporto tecnico e logistico : Manuel Goepfert
Aiuto per la traduzione : Arnaldo La Scala

Contatto : metmap@orbifly.com




FONTI E CREDITI :

   NOAA